Time,TemperatureF,DewpointF,PressureIn,WindDirection,WindDirectionDegrees,WindSpeedMPH,WindSpeedGustMPH,Humidity,HourlyPrecipIn,Conditions,Clouds,dailyrainin,SolarRadiationWatts/m^2,SoftwareType,DateUTC
2013-04-17 00:01:00,58.0,57.0,-100.00,NE,40,6.0,11.0,97,0.16,,,0.16,0.000000,,2013-04-17 04:01:00,
2013-04-17 00:33:00,58.0,57.0,-100.00,NE,40,6.0,11.0,97,0.16,,,0.16,0.000000,,2013-04-17 04:33:00,
2013-04-17 00:43:00,58.0,57.0,-100.00,NE,40,6.0,11.0,97,0.16,,,0.16,0.000000,,2013-04-17 04:43:00,
2013-04-17 00:53:00,58.0,57.0,-100.00,NE,40,6.0,11.0,97,0.16,,,0.16,0.000000,,2013-04-17 04:53:00,
2013-04-17 01:01:00,56.0,56.0,-100.00,NE,49,5.0,7.0,100,0.09,,,0.25,0.000000,,2013-04-17 05:01:00,
2013-04-17 01:22:00,56.0,56.0,-100.00,NE,49,5.0,7.0,100,0.09,,,0.25,0.000000,,2013-04-17 05:22:00,
2013-04-17 01:32:00,56.0,56.0,-100.00,NE,49,5.0,7.0,100,0.09,,,0.25,0.000000,,2013-04-17 05:32:00,
2013-04-17 01:43:00,56.0,56.0,-100.00,NE,49,5.0,7.0,100,0.09,,,0.25,0.000000,,2013-04-17 05:43:00,
2013-04-17 01:52:00,56.0,56.0,-100.00,NE,49,5.0,7.0,100,0.09,,,0.25,0.000000,,2013-04-17 05:52:00,
2013-04-17 02:01:00,56.0,56.0,-100.00,SSW,208,4.0,7.0,100,0.01,,,0.26,0.000000,,2013-04-17 06:01:00,
2013-04-17 02:32:00,56.0,56.0,-100.00,SSW,208,4.0,7.0,100,0.01,,,0.26,0.000000,,2013-04-17 06:32:00,
2013-04-17 02:42:00,56.0,56.0,-100.00,SSW,208,4.0,7.0,100,0.01,,,0.26,0.000000,,2013-04-17 06:42:00,
2013-04-17 02:52:00,56.0,56.0,-100.00,SSW,208,4.0,7.0,100,0.01,,,0.26,0.000000,,2013-04-17 06:52:00,
2013-04-17 03:01:00,55.0,55.0,-100.00,SW,224,4.0,11.0,100,0.00,,,0.26,0.000000,,2013-04-17 07:01:00,
2013-04-17 03:32:00,55.0,55.0,-100.00,SW,224,4.0,11.0,100,0.00,,,0.26,0.000000,,2013-04-17 07:32:00,
2013-04-17 03:42:00,55.0,55.0,-100.00,SW,224,4.0,11.0,100,0.00,,,0.26,0.000000,,2013-04-17 07:42:00,
2013-04-17 03:52:00,55.0,55.0,-100.00,SW,224,4.0,11.0,100,0.00,,,0.26,0.000000,,2013-04-17 07:52:00,
2013-04-17 04:01:00,56.0,56.0,-100.00,SW,232,4.0,8.0,100,0.00,,,0.26,0.000000,,2013-04-17 08:01:00,
2013-04-17 04:22:00,56.0,56.0,-100.00,SW,232,4.0,8.0,100,0.00,,,0.26,0.000000,,2013-04-17 08:22:00,
2013-04-17 04:33:00,56.0,56.0,-100.00,SW,232,4.0,8.0,100,0.00,,,0.26,0.000000,,2013-04-17 08:33:00,
2013-04-17 04:42:00,56.0,56.0,-100.00,SW,232,4.0,8.0,100,0.00,,,0.26,0.000000,,2013-04-17 08:42:00,
2013-04-17 04:52:00,56.0,56.0,-100.00,SW,232,4.0,8.0,100,0.00,,,0.26,0.000000,,2013-04-17 08:52:00,
2013-04-17 05:01:00,55.0,55.0,-100.00,SW,229,4.0,7.0,100,0.00,,,0.26,0.000000,,2013-04-17 09:01:00,
2013-04-17 05:33:00,55.0,55.0,-100.00,SW,229,4.0,7.0,100,0.00,,,0.26,0.000000,,2013-04-17 09:33:00,
2013-04-17 05:42:00,55.0,55.0,-100.00,SW,229,4.0,7.0,100,0.00,,,0.26,0.000000,,2013-04-17 09:42:00,
2013-04-17 05:53:00,55.0,55.0,-100.00,SW,229,4.0,7.0,100,0.00,,,0.26,0.000000,,2013-04-17 09:53:00,
2013-04-17 06:01:00,56.0,56.0,-100.00,SSW,213,4.0,12.0,100,0.00,,,0.26,0.000000,,2013-04-17 10:01:00,
2013-04-17 06:33:00,56.0,56.0,-100.00,SSW,213,4.0,12.0,100,0.00,,,0.26,0.000000,,2013-04-17 10:33:00,
2013-04-17 06:43:00,56.0,56.0,-100.00,SSW,213,4.0,12.0,100,0.00,,,0.26,0.000000,,2013-04-17 10:43:00,
2013-04-17 06:53:00,56.0,56.0,-100.00,SSW,213,4.0,12.0,100,0.00,,,0.26,0.000000,,2013-04-17 10:53:00,
2013-04-17 07:01:00,56.0,56.0,-100.00,WSW,240,5.0,8.0,100,0.00,,,0.26,2.000000,,2013-04-17 11:01:00,
2013-04-17 07:22:00,56.0,56.0,-100.00,WSW,240,5.0,8.0,100,0.00,,,0.26,2.000000,,2013-04-17 11:22:00,
2013-04-17 07:32:00,56.0,56.0,-100.00,WSW,240,5.0,8.0,100,0.00,,,0.26,2.000000,,2013-04-17 11:32:00,
2013-04-17 07:42:00,56.0,56.0,-100.00,WSW,240,5.0,8.0,100,0.00,,,0.26,2.000000,,2013-04-17 11:42:00,
2013-04-17 07:52:00,56.0,56.0,-100.00,WSW,240,5.0,8.0,100,0.00,,,0.26,2.000000,,2013-04-17 11:52:00,
2013-04-17 08:01:00,57.0,55.0,-100.00,West,265,4.0,8.0,93,0.00,,,0.26,42.000000,,2013-04-17 12:01:00,
2013-04-17 08:32:00,57.0,55.0,-100.00,West,265,4.0,8.0,93,0.00,,,0.26,42.000000,,2013-04-17 12:32:00,
2013-04-17 08:42:00,57.0,55.0,-100.00,West,265,4.0,8.0,93,0.00,,,0.26,42.000000,,2013-04-17 12:42:00,
2013-04-17 08:52:00,57.0,55.0,-100.00,West,265,4.0,8.0,93,0.00,,,0.26,42.000000,,2013-04-17 12:52:00,
2013-04-17 09:01:00,59.0,58.0,-100.00,SSW,211,4.0,7.0,95,0.00,,,0.26,232.000000,,2013-04-17 13:01:00,
2013-04-17 09:22:00,59.0,58.0,-100.00,SSW,211,4.0,7.0,95,0.00,,,0.26,232.000000,,2013-04-17 13:22:00,
2013-04-17 09:32:00,59.0,58.0,-100.00,SSW,211,4.0,7.0,95,0.00,,,0.26,232.000000,,2013-04-17 13:32:00,
2013-04-17 09:42:00,59.0,58.0,-100.00,SSW,211,4.0,7.0,95,0.00,,,0.26,232.000000,,2013-04-17 13:42:00,
2013-04-17 09:52:00,59.0,58.0,-100.00,SSW,211,4.0,7.0,95,0.00,,,0.26,232.000000,,2013-04-17 13:52:00,
2013-04-17 10:01:00,60.0,57.0,-100.00,SSE,161,3.0,6.0,89,0.00,,,0.26,310.000000,,2013-04-17 14:01:00,
2013-04-17 10:32:00,60.0,57.0,-100.00,SSE,161,3.0,6.0,89,0.00,,,0.26,310.000000,,2013-04-17 14:32:00,
2013-04-17 10:43:00,60.0,57.0,-100.00,SSE,161,3.0,6.0,89,0.00,,,0.26,310.000000,,2013-04-17 14:43:00,
2013-04-17 10:52:00,60.0,57.0,-100.00,SSE,161,3.0,6.0,89,0.00,,,0.26,310.000000,,2013-04-17 14:52:00,
2013-04-17 11:01:00,66.0,59.0,-100.00,NNE,16,2.0,5.0,78,0.00,,,0.26,483.000000,,2013-04-17 15:01:00,
2013-04-17 11:22:00,66.0,59.0,-100.00,NNE,16,2.0,5.0,78,0.00,,,0.26,483.000000,,2013-04-17 15:22:00,
2013-04-17 11:33:00,66.0,59.0,-100.00,NNE,16,2.0,5.0,78,0.00,,,0.26,483.000000,,2013-04-17 15:33:00,
2013-04-17 11:43:00,66.0,59.0,-100.00,NNE,16,2.0,5.0,78,0.00,,,0.26,483.000000,,2013-04-17 15:43:00,
2013-04-17 11:53:00,66.0,59.0,-100.00,NNE,16,2.0,5.0,78,0.00,,,0.26,483.000000,,2013-04-17 15:53:00,
2013-04-17 12:01:00,65.0,57.0,-100.00,WNW,286,4.0,7.0,75,0.00,,,0.26,466.000000,,2013-04-17 16:01:00,
2013-04-17 12:23:00,65.0,57.0,-100.00,WNW,286,4.0,7.0,75,0.00,,,0.26,466.000000,,2013-04-17 16:23:00,
2013-04-17 12:32:00,65.0,57.0,-100.00,WNW,286,4.0,7.0,75,0.00,,,0.26,466.000000,,2013-04-17 16:32:00,
2013-04-17 12:42:00,65.0,57.0,-100.00,WNW,286,4.0,7.0,75,0.00,,,0.26,466.000000,,2013-04-17 16:42:00,
2013-04-17 12:52:00,65.0,57.0,-100.00,WNW,286,4.0,7.0,75,0.00,,,0.26,466.000000,,2013-04-17 16:52:00,
2013-04-17 13:01:00,70.0,57.0,-100.00,North,7,4.0,7.0,64,0.00,,,0.26,710.000000,,2013-04-17 17:01:00,
2013-04-17 13:33:00,70.0,57.0,-100.00,North,7,4.0,7.0,64,0.00,,,0.26,710.000000,,2013-04-17 17:33:00,
2013-04-17 13:42:00,70.0,57.0,-100.00,North,7,4.0,7.0,64,0.00,,,0.26,710.000000,,2013-04-17 17:42:00,
2013-04-17 13:52:00,70.0,57.0,-100.00,North,7,4.0,7.0,64,0.00,,,0.26,710.000000,,2013-04-17 17:52:00,
2013-04-17 14:01:00,71.0,56.0,-100.00,West,263,4.0,8.0,59,0.00,,,0.26,640.000000,,2013-04-17 18:01:00,
2013-04-17 14:33:00,71.0,56.0,-100.00,West,263,4.0,8.0,59,0.00,,,0.26,640.000000,,2013-04-17 18:33:00,
2013-04-17 14:42:00,71.0,56.0,-100.00,West,263,4.0,8.0,59,0.00,,,0.26,640.000000,,2013-04-17 18:42:00,
2013-04-17 14:52:00,71.0,56.0,-100.00,West,263,4.0,8.0,59,0.00,,,0.26,640.000000,,2013-04-17 18:52:00,
2013-04-17 15:01:00,73.0,53.0,-100.00,South,173,4.0,7.0,50,0.00,,,0.26,762.000000,,2013-04-17 19:01:00,
2013-04-17 15:32:00,73.0,53.0,-100.00,South,173,4.0,7.0,50,0.00,,,0.26,762.000000,,2013-04-17 19:32:00,
2013-04-17 15:42:00,73.0,53.0,-100.00,South,173,4.0,7.0,50,0.00,,,0.26,762.000000,,2013-04-17 19:42:00,
2013-04-17 15:52:00,73.0,53.0,-100.00,South,173,4.0,7.0,50,0.00,,,0.26,762.000000,,2013-04-17 19:52:00,
2013-04-17 16:01:00,71.0,52.0,-100.00,West,274,3.0,9.0,52,0.00,,,0.26,522.000000,,2013-04-17 20:01:00,
2013-04-17 16:33:00,71.0,52.0,-100.00,West,274,3.0,9.0,52,0.00,,,0.26,522.000000,,2013-04-17 20:33:00,
2013-04-17 16:42:00,71.0,52.0,-100.00,West,274,3.0,9.0,52,0.00,,,0.26,522.000000,,2013-04-17 20:42:00,
2013-04-17 16:52:00,71.0,52.0,-100.00,West,274,3.0,9.0,52,0.00,,,0.26,522.000000,,2013-04-17 20:52:00,
2013-04-17 17:01:00,77.0,51.0,-100.00,South,191,3.0,6.0,40,0.00,,,0.26,483.000000,,2013-04-17 21:01:00,
2013-04-17 17:33:00,77.0,51.0,-100.00,South,191,3.0,6.0,40,0.00,,,0.26,483.000000,,2013-04-17 21:33:00,
2013-04-17 17:43:00,77.0,51.0,-100.00,South,191,3.0,6.0,40,0.00,,,0.26,483.000000,,2013-04-17 21:43:00,
2013-04-17 17:53:00,77.0,51.0,-100.00,South,191,3.0,6.0,40,0.00,,,0.26,483.000000,,2013-04-17 21:53:00,
2013-04-17 18:01:00,76.0,51.0,-100.00,SSE,153,3.0,7.0,42,0.00,,,0.26,380.000000,,2013-04-17 22:01:00,
2013-04-17 18:33:00,76.0,51.0,-100.00,SSE,153,3.0,7.0,42,0.00,,,0.26,380.000000,,2013-04-17 22:33:00,
2013-04-17 18:43:00,76.0,51.0,-100.00,SSE,153,3.0,7.0,42,0.00,,,0.26,380.000000,,2013-04-17 22:43:00,
2013-04-17 18:53:00,76.0,51.0,-100.00,SSE,153,3.0,7.0,42,0.00,,,0.26,380.000000,,2013-04-17 22:53:00,
2013-04-17 19:01:00,72.0,51.0,-100.00,SW,221,2.0,7.0,48,0.00,,,0.26,276.000000,,2013-04-17 23:01:00,
2013-04-17 19:22:00,72.0,51.0,-100.00,SW,221,2.0,7.0,48,0.00,,,0.26,276.000000,,2013-04-17 23:22:00,
2013-04-17 19:32:00,72.0,51.0,-100.00,SW,221,2.0,7.0,48,0.00,,,0.26,276.000000,,2013-04-17 23:32:00,
2013-04-17 19:42:00,72.0,51.0,-100.00,SW,221,2.0,7.0,48,0.00,,,0.26,276.000000,,2013-04-17 23:42:00,
2013-04-17 19:52:00,72.0,51.0,-100.00,SW,221,2.0,7.0,48,0.00,,,0.26,276.000000,,2013-04-17 23:52:00,
2013-04-17 20:01:00,68.0,50.0,-100.00,SSW,204,3.0,6.0,53,0.00,,,0.26,101.000000,,2013-04-18 00:01:00,
2013-04-17 20:32:00,68.0,50.0,-100.00,SSW,204,3.0,6.0,53,0.00,,,0.26,101.000000,,2013-04-18 00:32:00,
2013-04-17 20:43:00,68.0,50.0,-100.00,SSW,204,3.0,6.0,53,0.00,,,0.26,101.000000,,2013-04-18 00:43:00,
2013-04-17 20:52:00,68.0,50.0,-100.00,SSW,204,3.0,6.0,53,0.00,,,0.26,101.000000,,2013-04-18 00:52:00,
2013-04-17 21:01:00,66.0,52.0,-100.00,SSE,149,3.0,7.0,60,0.00,,,0.26,0.000000,,2013-04-18 01:01:00,
2013-04-17 21:32:00,66.0,52.0,-100.00,SSE,149,3.0,7.0,60,0.00,,,0.26,0.000000,,2013-04-18 01:32:00,
2013-04-17 21:42:00,66.0,52.0,-100.00,SSE,149,3.0,7.0,60,0.00,,,0.26,0.000000,,2013-04-18 01:42:00,
2013-04-17 21:52:00,66.0,52.0,-100.00,SSE,149,3.0,7.0,60,0.00,,,0.26,0.000000,,2013-04-18 01:52:00,
2013-04-17 22:01:00,65.0,54.0,-100.00,SSW,205,6.0,10.0,67,0.00,,,0.26,0.000000,,2013-04-18 02:01:00,
2013-04-17 22:22:00,65.0,54.0,-100.00,SSW,205,6.0,10.0,67,0.00,,,0.26,0.000000,,2013-04-18 02:22:00,
2013-04-17 22:32:00,65.0,54.0,-100.00,SSW,205,6.0,10.0,67,0.00,,,0.26,0.000000,,2013-04-18 02:32:00,
2013-04-17 22:42:00,65.0,54.0,-100.00,SSW,205,6.0,10.0,67,0.00,,,0.26,0.000000,,2013-04-18 02:42:00,
2013-04-17 22:52:00,65.0,54.0,-100.00,SSW,205,6.0,10.0,67,0.00,,,0.26,0.000000,,2013-04-18 02:52:00,
2013-04-17 23:01:00,63.0,53.0,-100.00,SSW,201,8.0,11.0,70,0.00,,,-99.99,0.000000,,2013-04-18 03:01:00,
2013-04-17 23:33:00,63.0,53.0,-100.00,SSW,201,8.0,11.0,70,0.00,,,-99.99,0.000000,,2013-04-18 03:33:00,
2013-04-17 23:43:00,63.0,53.0,-100.00,SSW,201,8.0,11.0,70,0.00,,,-99.99,0.000000,,2013-04-18 03:43:00,
2013-04-17 23:53:00,63.0,53.0,-100.00,SSW,201,8.0,11.0,70,0.00,,,-99.99,0.000000,,2013-04-18 03:53:00,